createdAt,value
2023-04-21T00:03:03.522Z,3.92
2023-04-21T00:06:07.495Z,3.88
2023-04-21T00:09:11.819Z,3.67
2023-04-21T00:12:14.762Z,3.65
2023-04-21T00:15:17.659Z,3.60
2023-04-21T00:18:20.505Z,3.70
2023-04-21T00:21:23.411Z,4.13
2023-04-21T00:24:28.053Z,3.72
2023-04-21T00:27:30.955Z,3.60
2023-04-21T00:30:33.882Z,3.53
2023-04-21T00:33:37.104Z,3.90
2023-04-21T00:36:39.981Z,3.90
2023-04-21T00:39:44.264Z,3.58
2023-04-21T00:42:49.442Z,3.70
2023-04-21T00:45:52.356Z,3.42
2023-04-21T00:48:55.238Z,3.63
2023-04-21T00:51:59.277Z,3.60
2023-04-21T00:55:05.642Z,3.30
2023-04-21T00:58:08.713Z,3.67
2023-04-21T01:01:12.486Z,3.70
2023-04-21T01:04:15.403Z,3.45
2023-04-21T01:07:18.334Z,3.83
2023-04-21T01:10:22.615Z,3.47
2023-04-21T01:13:25.563Z,3.35
2023-04-21T01:16:29.537Z,3.47
2023-04-21T01:19:35.769Z,3.90
2023-04-21T01:22:41.675Z,3.50
2023-04-21T01:25:44.543Z,3.88
2023-04-21T01:28:48.850Z,3.17
2023-04-21T01:31:51.891Z,3.53
2023-04-21T01:34:55.202Z,3.50
2023-04-21T01:37:59.702Z,3.40
2023-04-21T01:41:02.585Z,3.40
2023-04-21T01:44:05.830Z,3.08
2023-04-21T01:47:10.079Z,3.40
2023-04-21T01:50:13.077Z,3.20
2023-04-21T01:53:19.837Z,3.28
2023-04-21T01:56:22.835Z,3.58
2023-04-21T01:59:25.933Z,3.20
2023-04-21T02:02:28.952Z,3.20
2023-04-21T02:05:31.919Z,3.20
2023-04-21T02:08:36.231Z,3.08
2023-04-21T02:11:39.195Z,3.58
2023-04-21T02:14:42.135Z,3.60
2023-04-21T02:17:45.253Z,3.33
2023-04-21T02:20:48.362Z,3.20
2023-04-21T02:23:52.967Z,3.40
2023-04-21T02:26:57.622Z,3.33
2023-04-21T02:30:00.525Z,3.40
2023-04-21T02:33:03.481Z,3.40
2023-04-21T02:36:07.219Z,3.28
2023-04-21T02:39:11.601Z,3.20
2023-04-21T02:42:14.514Z,3.60
2023-04-21T02:45:17.553Z,3.30
2023-04-21T02:48:23.038Z,3.25
2023-04-21T02:51:27.476Z,3.47
2023-04-21T02:54:31.709Z,3.03
2023-04-21T02:57:34.714Z,2.85
2023-04-21T03:00:37.734Z,3.58
2023-04-21T03:03:40.838Z,3.22
2023-04-21T03:06:43.723Z,3.40
2023-04-21T03:09:49.913Z,3.20
2023-04-21T03:12:53.582Z,2.90
2023-04-21T03:15:57.335Z,3.47
2023-04-21T03:19:00.489Z,3.55
2023-04-21T03:22:03.650Z,3.53
2023-04-21T03:25:08.837Z,2.85
2023-04-21T03:28:11.935Z,3.50
2023-04-21T03:31:14.884Z,2.88
2023-04-21T03:34:17.792Z,2.80
2023-04-21T03:37:21.121Z,2.88
2023-04-21T03:40:26.466Z,3.10
2023-04-21T03:43:29.412Z,3.00
2023-04-21T03:46:32.434Z,2.83
2023-04-21T03:49:36.232Z,3.53
2023-04-21T03:52:39.101Z,2.78
2023-04-21T03:55:43.379Z,2.97
2023-04-21T03:58:46.307Z,2.70
2023-04-21T04:01:49.218Z,3.00
2023-04-21T04:04:52.197Z,3.20
2023-04-21T04:07:55.318Z,2.70
2023-04-21T04:10:59.542Z,2.70
2023-04-21T04:14:02.413Z,2.85
2023-04-21T04:17:05.286Z,2.70
2023-04-21T04:20:09.413Z,2.80
2023-04-21T04:23:12.356Z,3.20
2023-04-21T04:26:16.673Z,3.05
2023-04-21T04:29:20.101Z,3.40
2023-04-21T04:32:23.174Z,3.08
2023-04-21T04:35:26.149Z,2.67
2023-04-21T04:38:30.409Z,3.10
2023-04-21T04:41:36.382Z,2.90
2023-04-21T04:44:41.504Z,3.17
2023-04-21T04:47:45.880Z,2.72
2023-04-21T04:50:48.926Z,3.03
2023-04-21T04:53:51.831Z,2.80
2023-04-21T04:56:56.781Z,3.15
2023-04-21T04:59:59.660Z,2.83
2023-04-21T05:03:02.675Z,3.00
2023-04-21T05:06:06.551Z,3.00
2023-04-21T05:09:10.243Z,2.75
2023-04-21T05:12:14.487Z,2.83
2023-04-21T05:15:18.776Z,3.63
2023-04-21T05:18:21.661Z,3.15
2023-04-21T05:21:27.632Z,2.90
2023-04-21T05:24:30.753Z,3.20
2023-04-21T05:27:35.296Z,2.80
2023-04-21T05:30:38.263Z,2.95
2023-04-21T05:33:41.179Z,3.25
2023-04-21T05:36:44.453Z,3.08
2023-04-21T05:39:47.428Z,2.88
2023-04-21T05:42:51.693Z,3.03
2023-04-21T05:45:54.613Z,2.80
2023-04-21T05:48:57.532Z,2.88
2023-04-21T05:52:00.479Z,3.08
2023-04-21T05:55:03.322Z,2.80
2023-04-21T05:58:07.600Z,2.90
2023-04-21T06:01:10.740Z,2.80
2023-04-21T06:04:13.987Z,2.70
2023-04-21T06:07:18.782Z,3.20
2023-04-21T06:10:21.976Z,2.67
2023-04-21T06:13:27.534Z,2.80
2023-04-21T06:16:34.082Z,2.97
2023-04-21T06:19:40.030Z,3.25
2023-04-21T06:22:43.704Z,3.10
2023-04-21T06:25:46.612Z,2.88
2023-04-21T06:28:51.316Z,2.90
2023-04-21T06:31:54.219Z,3.00
2023-04-21T06:34:57.170Z,3.05
2023-04-21T06:38:00.023Z,3.10
2023-04-21T06:41:04.580Z,2.70
2023-04-21T06:44:08.927Z,2.55
2023-04-21T06:47:11.842Z,2.92
2023-04-21T06:50:14.796Z,2.75
2023-04-21T06:53:18.128Z,2.72
2023-04-21T06:56:21.191Z,3.13
2023-04-21T06:59:25.545Z,2.90
2023-04-21T07:02:28.650Z,2.72
2023-04-21T07:05:31.700Z,2.92
2023-04-21T07:08:34.568Z,3.00
2023-04-21T07:11:37.464Z,2.92
2023-04-21T07:14:41.733Z,2.75
2023-04-21T07:17:44.727Z,3.03
2023-04-21T07:20:47.664Z,3.42
2023-04-21T07:23:50.600Z,3.30
2023-04-21T07:26:53.514Z,3.15
2023-04-21T07:29:57.872Z,3.17
2023-04-21T07:33:00.864Z,2.90
2023-04-21T07:36:03.803Z,3.35
2023-04-21T07:39:06.969Z,3.42
2023-04-21T07:42:11.103Z,4.95
2023-04-21T07:45:15.380Z,7.13
2023-04-21T07:48:18.320Z,6.93
2023-04-21T07:51:21.219Z,6.63
2023-04-21T07:54:24.156Z,6.93
2023-04-21T07:57:27.044Z,6.18
2023-04-21T08:00:31.341Z,7.25
2023-04-21T08:03:34.602Z,5.95
2023-04-21T08:06:37.871Z,5.93
2023-04-21T08:09:40.909Z,6.43
2023-04-21T08:12:43.831Z,5.88
2023-04-21T08:15:48.168Z,6.28
2023-04-21T08:18:51.066Z,6.13
2023-04-21T08:21:54.111Z,6.38
2023-04-21T08:24:57.177Z,6.60
2023-04-21T08:28:00.419Z,6.07
2023-04-21T08:31:05.307Z,5.75
2023-04-21T08:34:08.295Z,6.20
2023-04-21T08:37:11.349Z,6.15
2023-04-21T08:40:14.390Z,5.65
2023-04-21T08:43:17.363Z,6.15
2023-04-21T08:46:22.971Z,6.18
2023-04-21T08:49:30.590Z,6.10
2023-04-21T08:52:33.565Z,5.90
2023-04-21T08:55:36.739Z,6.28
2023-04-21T08:58:39.656Z,6.20
2023-04-21T09:02:09.952Z,6.50
2023-04-21T09:05:22.936Z,6.22
2023-04-21T09:08:28.075Z,6.00
2023-04-21T09:11:34.183Z,5.80
2023-04-21T09:14:37.080Z,5.97
2023-04-21T09:17:41.784Z,6.22
2023-04-21T09:20:46.632Z,6.45
2023-04-21T09:23:51.230Z,5.20
2023-04-21T09:26:54.614Z,5.75
2023-04-21T09:30:06.017Z,5.88
2023-04-21T09:33:27.963Z,5.22
2023-04-21T09:36:33.734Z,5.80
2023-04-21T09:39:46.371Z,5.32
2023-04-21T09:42:56.129Z,5.65
2023-04-21T09:46:01.487Z,5.47
2023-04-21T09:49:06.143Z,5.40
2023-04-21T09:52:19.091Z,5.50
2023-04-21T09:55:27.093Z,5.60
2023-04-21T09:58:36.004Z,5.43
2023-04-21T10:01:39.861Z,5.35
2023-04-21T10:04:45.771Z,5.13
2023-04-21T10:07:50.186Z,5.05
2023-04-21T10:10:54.477Z,5.18
2023-04-21T10:13:57.467Z,5.88
2023-04-21T10:17:06.533Z,5.43
2023-04-21T10:20:16.498Z,5.05
2023-04-21T10:23:31.117Z,5.35
2023-04-21T10:26:36.069Z,5.20
2023-04-21T10:29:55.498Z,5.00
2023-04-21T10:33:04.274Z,5.60
2023-04-21T10:36:15.686Z,5.47
2023-04-21T10:39:28.993Z,5.18
2023-04-21T10:42:36.914Z,5.35
2023-04-21T10:45:40.054Z,5.25
2023-04-21T10:48:42.951Z,4.93
2023-04-21T10:52:07.982Z,4.80
2023-04-21T10:55:12.700Z,5.20
2023-04-21T10:58:17.486Z,5.28
2023-04-21T11:01:21.452Z,5.07
2023-04-21T11:04:25.356Z,5.30
2023-04-21T11:07:31.024Z,4.97
2023-04-21T11:10:43.880Z,5.15
2023-04-21T11:13:47.663Z,5.22
2023-04-21T11:16:51.139Z,4.90
2023-04-21T11:19:55.784Z,4.78
2023-04-21T11:23:00.087Z,4.68
2023-04-21T11:26:03.062Z,4.72
2023-04-21T11:29:07.604Z,4.40
2023-04-21T11:32:10.725Z,4.90
2023-04-21T11:35:13.731Z,5.15
2023-04-21T11:38:18.978Z,4.90
2023-04-21T11:41:23.106Z,5.03
2023-04-21T11:44:36.380Z,5.13
2023-04-21T11:47:40.107Z,4.97
2023-04-21T11:50:48.496Z,4.90
2023-04-21T11:53:53.112Z,4.68
2023-04-21T11:56:56.075Z,5.00
2023-04-21T12:00:00.012Z,4.68
2023-04-21T12:03:03.170Z,4.53
2023-04-21T12:06:07.608Z,4.53
2023-04-21T12:09:18.326Z,4.53
2023-04-21T12:12:23.188Z,4.40
2023-04-21T12:15:26.263Z,5.53
2023-04-21T12:18:29.362Z,4.70
2023-04-21T12:21:32.336Z,4.70
2023-04-21T12:24:36.996Z,4.78
2023-04-21T12:27:49.194Z,5.18
2023-04-21T12:30:52.150Z,5.20
2023-04-21T12:33:55.216Z,4.25
2023-04-21T12:36:58.178Z,5.10
2023-04-21T12:40:02.472Z,4.30
2023-04-21T12:43:05.413Z,4.80
2023-04-21T12:46:08.773Z,4.20
2023-04-21T12:49:11.815Z,4.40
2023-04-21T12:52:14.731Z,4.30
2023-04-21T12:55:19.170Z,4.32
2023-04-21T12:58:22.108Z,4.25
2023-04-21T13:01:25.513Z,4.50
2023-04-21T13:04:29.054Z,4.00
2023-04-21T13:07:32.362Z,4.15
2023-04-21T13:10:36.665Z,3.92
2023-04-21T13:13:39.611Z,4.80
2023-04-21T13:16:42.769Z,4.13
2023-04-21T13:19:45.782Z,3.75
2023-04-21T13:22:48.781Z,3.92
2023-04-21T13:25:53.102Z,3.90
2023-04-21T13:28:56.177Z,4.38
2023-04-21T13:31:59.105Z,4.10
2023-04-21T13:35:02.001Z,4.28
2023-04-21T13:38:04.934Z,3.70
2023-04-21T13:41:09.411Z,4.00
2023-04-21T13:44:12.413Z,4.00
2023-04-21T13:47:15.756Z,4.07
2023-04-21T13:50:18.816Z,3.80
2023-04-21T13:53:21.791Z,4.30
2023-04-21T13:56:26.391Z,4.13
2023-04-21T13:59:29.360Z,3.75
2023-04-21T14:02:32.432Z,3.83
2023-04-21T14:05:36.573Z,4.05
2023-04-21T14:08:39.712Z,4.00
2023-04-21T14:11:44.004Z,4.03
2023-04-21T14:14:47.310Z,3.70
2023-04-21T14:17:50.379Z,3.75
2023-04-21T14:20:53.383Z,3.80
2023-04-21T14:23:56.353Z,3.47
2023-04-21T14:27:01.195Z,3.60
2023-04-21T14:30:04.388Z,3.33
2023-04-21T14:33:07.282Z,4.25
2023-04-21T14:36:10.487Z,3.30
2023-04-21T14:39:13.447Z,3.47
2023-04-21T14:42:18.694Z,3.50
2023-04-21T14:45:21.747Z,3.78
2023-04-21T14:48:24.720Z,3.35
2023-04-21T14:51:27.766Z,3.70
2023-04-21T14:54:30.703Z,3.42
2023-04-21T14:57:35.034Z,3.42
2023-04-21T15:00:38.010Z,4.60
2023-04-21T15:03:41.048Z,3.22
2023-04-21T15:06:43.983Z,3.80
2023-04-21T15:09:48.567Z,3.83
2023-04-21T15:12:52.965Z,3.60
2023-04-21T15:15:55.826Z,3.60
2023-04-21T15:18:58.706Z,3.60
2023-04-21T15:22:01.618Z,3.33
2023-04-21T15:25:04.766Z,2.90
2023-04-21T15:28:09.851Z,3.55
2023-04-21T15:31:13.036Z,3.40
2023-04-21T15:34:16.028Z,3.03
2023-04-21T15:37:20.169Z,3.80
2023-04-21T15:40:23.273Z,3.20
2023-04-21T15:43:27.611Z,3.28
2023-04-21T15:46:30.735Z,3.95
2023-04-21T15:49:34.052Z,3.67
2023-04-21T15:52:37.946Z,3.60
2023-04-21T15:55:40.922Z,3.45
2023-04-21T15:58:45.841Z,3.25
2023-04-21T16:01:48.836Z,3.33
2023-04-21T16:04:52.116Z,3.47
2023-04-21T16:07:55.245Z,3.47
2023-04-21T16:10:58.254Z,3.33
2023-04-21T16:14:02.722Z,3.20
2023-04-21T16:17:05.896Z,3.70
2023-04-21T16:20:10.729Z,2.97
2023-04-21T16:23:13.748Z,2.90
2023-04-21T16:26:16.896Z,3.15
2023-04-21T16:29:21.169Z,3.33
2023-04-21T16:32:24.175Z,3.10
2023-04-21T16:35:27.332Z,3.25
2023-04-21T16:38:30.342Z,3.40
2023-04-21T16:41:33.242Z,2.83
2023-04-21T16:44:37.652Z,3.13
2023-04-21T16:47:42.292Z,2.90
2023-04-21T16:50:45.598Z,3.00
2023-04-21T16:53:48.500Z,3.45
2023-04-21T16:56:51.469Z,2.90
2023-04-21T16:59:56.063Z,3.40
2023-04-21T17:02:59.199Z,3.05
2023-04-21T17:06:04.587Z,3.00
2023-04-21T17:09:08.246Z,3.00
2023-04-21T17:12:11.147Z,3.78
2023-04-21T17:15:15.448Z,2.97
2023-04-21T17:18:18.480Z,3.50
2023-04-21T17:21:21.487Z,3.17
2023-04-21T17:24:24.934Z,2.90
2023-04-21T17:27:27.931Z,2.88
2023-04-21T17:30:32.203Z,3.00
2023-04-21T17:33:35.342Z,3.08
2023-04-21T17:36:39.827Z,2.78
2023-04-21T17:39:42.863Z,2.88
2023-04-21T17:42:45.829Z,3.00
2023-04-21T17:45:50.197Z,3.28
2023-04-21T17:48:53.299Z,2.90
2023-04-21T17:51:56.395Z,3.63
2023-04-21T17:54:59.309Z,3.05
2023-04-21T17:58:02.283Z,3.28
2023-04-21T18:01:07.270Z,3.00
2023-04-21T18:04:10.410Z,3.45
2023-04-21T18:07:13.544Z,2.97
2023-04-21T18:10:16.433Z,3.05
2023-04-21T18:13:19.335Z,3.20
2023-04-21T18:16:24.084Z,3.40
2023-04-21T18:19:27.382Z,2.80
2023-04-21T18:22:30.288Z,2.70
2023-04-21T18:25:42.176Z,3.13
2023-04-21T18:28:46.115Z,3.17
2023-04-21T18:31:50.566Z,3.17
2023-04-21T18:34:53.739Z,3.17
2023-04-21T18:37:56.733Z,3.22
2023-04-21T18:40:59.676Z,3.10
2023-04-21T18:44:02.582Z,2.70
2023-04-21T18:47:06.975Z,3.10
2023-04-21T18:50:10.635Z,2.70
2023-04-21T18:53:13.593Z,2.63
2023-04-21T18:56:16.923Z,3.08
2023-04-21T18:59:22.074Z,2.53
2023-04-21T19:02:26.485Z,2.70
2023-04-21T19:05:31.309Z,3.10
2023-04-21T19:08:42.096Z,3.13
2023-04-21T19:11:46.271Z,2.72
2023-04-21T19:14:50.159Z,2.70
2023-04-21T19:17:54.955Z,2.70
2023-04-21T19:20:57.855Z,3.10
2023-04-21T19:24:01.020Z,2.80
2023-04-21T19:27:06.066Z,2.97
2023-04-21T19:30:10.259Z,2.55
2023-04-21T19:33:14.536Z,2.65
2023-04-21T19:36:17.585Z,3.00
2023-04-21T19:39:20.627Z,2.55
2023-04-21T19:42:23.568Z,3.10
2023-04-21T19:45:27.245Z,3.75
2023-04-21T19:48:32.056Z,3.42
2023-04-21T19:51:34.967Z,3.13
2023-04-21T19:54:38.224Z,3.05
2023-04-21T19:57:41.374Z,3.10
2023-04-21T20:00:46.278Z,2.72
2023-04-21T20:03:51.805Z,3.33
2023-04-21T20:06:54.900Z,3.45
2023-04-21T20:09:57.980Z,3.25
2023-04-21T20:13:00.914Z,3.10
2023-04-21T20:16:03.976Z,2.75
2023-04-21T20:19:08.996Z,3.30
2023-04-21T20:22:11.943Z,2.80
2023-04-21T20:25:15.045Z,3.35
2023-04-21T20:28:18.055Z,2.80
2023-04-21T20:31:23.728Z,3.17
2023-04-21T20:34:28.217Z,3.20
2023-04-21T20:37:33.513Z,3.00
2023-04-21T20:40:36.474Z,2.70
2023-04-21T20:43:40.403Z,3.00
2023-04-21T20:46:43.568Z,2.83
2023-04-21T20:49:48.400Z,3.03
2023-04-21T20:52:51.463Z,3.13
2023-04-21T20:55:54.438Z,3.08
2023-04-21T20:58:57.398Z,3.17
2023-04-21T21:02:00.475Z,2.90
2023-04-21T21:05:05.276Z,2.92
2023-04-21T21:08:08.651Z,3.22
2023-04-21T21:11:11.540Z,3.20
2023-04-21T21:14:14.768Z,2.97
2023-04-21T21:17:18.051Z,3.33
2023-04-21T21:20:22.569Z,3.10
2023-04-21T21:23:26.006Z,3.03
2023-04-21T21:26:28.925Z,3.20
2023-04-21T21:29:31.870Z,3.05
2023-04-21T21:32:35.060Z,3.22
2023-04-21T21:35:39.466Z,3.13
2023-04-21T21:38:42.418Z,3.08
2023-04-21T21:41:45.342Z,2.63
2023-04-21T21:44:48.199Z,3.45
2023-04-21T21:47:51.348Z,2.95
2023-04-21T21:50:55.774Z,3.28
2023-04-21T21:53:58.638Z,3.00
2023-04-21T21:57:02.044Z,3.22
2023-04-21T22:00:07.618Z,3.10
2023-04-21T22:03:11.070Z,3.38
2023-04-21T22:06:17.220Z,3.35
2023-04-21T22:09:21.029Z,3.40
2023-04-21T22:12:24.034Z,2.95
2023-04-21T22:15:26.934Z,3.40
2023-04-21T22:18:30.117Z,3.58
2023-04-21T22:21:34.478Z,3.55
2023-04-21T22:24:37.404Z,5.15
2023-04-21T22:27:40.423Z,9.93
2023-04-21T22:30:43.400Z,10.18
2023-04-21T22:33:46.603Z,16.67
2023-04-21T22:36:52.085Z,17.40
2023-04-21T22:40:05.140Z,21.08
2023-04-21T22:43:08.787Z,21.20
2023-04-21T22:46:21.481Z,17.25
2023-04-21T22:49:24.488Z,18.27
2023-04-21T22:52:28.737Z,16.48
2023-04-21T22:55:31.961Z,17.52
2023-04-21T22:58:34.883Z,16.30
2023-04-21T23:01:37.953Z,14.95
2023-04-21T23:04:40.879Z,14.93
2023-04-21T23:07:45.162Z,15.73
2023-04-21T23:10:48.219Z,14.18
2023-04-21T23:13:51.260Z,14.57
2023-04-21T23:16:54.306Z,13.48
2023-04-21T23:19:57.450Z,14.38
2023-04-21T23:23:05.672Z,13.20
2023-04-21T23:26:08.540Z,14.40
2023-04-21T23:29:12.787Z,12.80
2023-04-21T23:32:15.771Z,13.00
2023-04-21T23:35:18.992Z,13.63
2023-04-21T23:38:23.265Z,12.20
2023-04-21T23:41:26.184Z,13.85
2023-04-21T23:44:29.107Z,12.55
2023-04-21T23:47:32.108Z,13.55
2023-04-21T23:50:35.326Z,13.02
2023-04-21T23:53:39.720Z,12.18
2023-04-21T23:56:42.641Z,13.27
2023-04-21T23:59:45.867Z,12.75
